Varmdo — SMXZ — position and weather

sailwx.info

Track history (hours):
 
Tides and Currents Weather Stations Pressure Air Temp Water Temp Dewpoint Dewpoint Depression Visibility Wind Speed Wind Dir Waves Ship Positions

Varmdo

Last reported at 2014-Jul-22 14:17 UTC. Time now 2014-Jul-22 14:59 UTC.
Position N 59°23' E 018°20'.

Length 38 m; draft 2.5 m.

Type: Passenger vessel. MMSI: 265520390.

Date/timePositionNaut miles runAvg speedWind from/ knotsBaromVisibWave heightAir tempDewpointWater temp
2014-Jul-22 14:17N 59°23' E 018°20'811.1
2014-Jul-22 13:32N 59°20' E 018°05'3 3.2
2014-Jul-22 12:33N 59°19' E 018°11'4 1.0
2014-Jul-22 08:28N 59°22' E 018°17'5 1.6
2014-Jul-22 05:33N 59°19' E 018°09'1 0.1
2014-Jul-21 14:12N 59°19' E 018°07'1 1.3
2014-Jul-21 13:30N 59°19' E 018°05'1 0.1
2014-Jul-21 06:09N 59°19' E 018°06'1 0.6
2014-Jul-21 04:09N 59°20' E 018°04'0 0.0
2014-Jul-20 18:33N 59°20' E 018°04'1 0.2
2014-Jul-20 13:22N 59°19' E 018°06'1 0.1
2014-Jul-20 06:33N 59°19' E 018°05'0 0.3
2014-Jul-20 05:32N 59°20' E 018°04'0 0.0
2014-Jul-20 04:32N 59°20' E 018°04'0 0.0
2014-Jul-20 03:32N 59°20' E 018°04'0 0.0
2014-Jul-20 02:32N 59°20' E 018°04'0 0.0
2014-Jul-20 01:29N 59°20' E 018°04'0 0.0
2014-Jul-20 00:29N 59°20' E 018°04'0 0.0
2014-Jul-19 23:32N 59°20' E 018°04'0 0.0
2014-Jul-19 22:32N 59°20' E 018°04'0 0.0
2014-Jul-19 21:32N 59°20' E 018°04'0 0.0
2014-Jul-19 20:32N 59°20' E 018°04'0 0.0
2014-Jul-19 19:29N 59°20' E 018°04'0 0.0
2014-Jul-19 18:32N 59°20' E 018°04'0 0.0
2014-Jul-19 17:32N 59°20' E 018°04'0 0.0
2014-Jul-19 16:32N 59°20' E 018°04'0 0.0
2014-Jul-19 15:32N 59°20' E 018°04'0 0.0
2014-Jul-19 14:26N 59°20' E 018°04'0 0.0
2014-Jul-19 13:32N 59°20' E 018°04'0 0.0
2014-Jul-19 06:33N 59°20' E 018°05'0 0.1
2014-Jul-19 05:31N 59°20' E 018°04'0 0.0
2014-Jul-19 04:31N 59°20' E 018°04'0 0.0
2014-Jul-19 03:31N 59°20' E 018°04'0 0.0
2014-Jul-19 02:31N 59°20' E 018°04'0 0.0
2014-Jul-19 01:31N 59°20' E 018°04'0 0.0
2014-Jul-19 00:31N 59°20' E 018°04'0 0.0
2014-Jul-18 23:31N 59°20' E 018°04'0 0.0
2014-Jul-18 22:31N 59°20' E 018°04'0 0.0
2014-Jul-18 21:31N 59°20' E 018°04'0 0.0
2014-Jul-18 20:31N 59°20' E 018°04'0 0.0
2014-Jul-18 19:31N 59°20' E 018°04'0 0.0
2014-Jul-18 18:31N 59°20' E 018°04'0 0.0
2014-Jul-18 17:28N 59°20' E 018°04'0 0.0
2014-Jul-18 09:33N 59°20' E 018°05'1 0.0
2014-Jul-17 15:11N 59°19' E 018°06'1 1.2
2014-Jul-17 14:18N 59°20' E 018°05'0 0.0
2014-Jul-17 06:33N 59°19' E 018°05'0 0.4
2014-Jul-17 05:26N 59°20' E 018°05'0 0.0
2014-Jul-17 04:32N 59°20' E 018°05'0 0.0
2014-Jul-17 03:32N 59°20' E 018°05'0 0.0
2014-Jul-17 02:32N 59°20' E 018°05'0 0.0
2014-Jul-17 01:32N 59°20' E 018°05'0 0.0
2014-Jul-17 00:32N 59°20' E 018°05'0 0.0
2014-Jul-16 23:32N 59°20' E 018°05'0 0.0
2014-Jul-16 22:32N 59°20' E 018°05'0 0.0
2014-Jul-16 21:32N 59°20' E 018°05'0 0.0
2014-Jul-16 20:32N 59°20' E 018°05'0 0.0
2014-Jul-16 14:32N 59°20' E 018°05'0 0.0
2014-Jul-16 10:05N 59°20' E 018°04'0 0.0
2014-Jul-16 08:17N 59°20' E 018°04'0 0.0
2014-Jul-15 13:32N 59°20' E 018°05'0 0.0
2014-Jul-15 07:33N 59°20' E 018°05'0 0.0
2014-Jul-15 06:33N 59°20' E 018°05'3 0.2
2014-Jul-14 14:26N 59°20' E 018°11'3 3.5
2014-Jul-14 13:27N 59°20' E 018°05'3 0.5
2014-Jul-14 06:22N 59°20' E 018°11'3 3.7
2014-Jul-14 05:28N 59°20' E 018°04'0 0.0
2014-Jul-14 04:31N 59°20' E 018°04'0 0.0
2014-Jul-14 03:31N 59°20' E 018°04'0 0.0
2014-Jul-14 02:28N 59°20' E 018°04'0 0.0
2014-Jul-14 01:31N 59°20' E 018°04'0 0.0
2014-Jul-14 00:31N 59°20' E 018°04'0 0.0
2014-Jul-13 23:31N 59°20' E 018°04'0 0.0
2014-Jul-13 22:31N 59°20' E 018°04'0 0.0
2014-Jul-13 21:31N 59°20' E 018°04'0 0.0
2014-Jul-13 20:31N 59°20' E 018°04'0 0.0
2014-Jul-13 19:28N 59°20' E 018°04'0 0.0
2014-Jul-13 18:31N 59°20' E 018°04'3 0.6
2014-Jul-13 13:32N 59°19' E 018°10'0 0.3
2014-Jul-13 12:33N 59°19' E 018°09'2 0.4
2014-Jul-13 06:33N 59°20' E 018°05'0 0.2
2014-Jul-13 05:28N 59°20' E 018°04'0 0.0
2014-Jul-13 04:28N 59°20' E 018°04'0 0.0
2014-Jul-13 03:31N 59°20' E 018°04'0 0.0
2014-Jul-13 02:31N 59°20' E 018°04'0 0.0
2014-Jul-13 01:31N 59°20' E 018°04'0 0.0
2014-Jul-13 00:28N 59°20' E 018°04'0 0.0
2014-Jul-12 23:31N 59°20' E 018°04'0 0.0
2014-Jul-12 22:31N 59°20' E 018°04'0 0.0
2014-Jul-12 21:31N 59°20' E 018°04'0 0.0
2014-Jul-12 20:31N 59°20' E 018°04'0 0.0
2014-Jul-12 19:31N 59°20' E 018°04'0 0.0
2014-Jul-12 18:31N 59°20' E 018°04'0 0.0
2014-Jul-12 17:31N 59°20' E 018°04'0 0.0
2014-Jul-12 16:31N 59°20' E 018°04'0 0.0
2014-Jul-12 15:28N 59°20' E 018°04'0 0.0
2014-Jul-12 14:31N 59°20' E 018°04'  
Track history (hours):
 
Tides and Currents Weather Stations Pressure Air Temp Water Temp Dewpoint Dewpoint Depression Visibility Wind Speed Wind Dir Waves Ship Positions

Varmdo

Last reported at 2014-Jul-22 14:17 UTC. Time now 2014-Jul-22 14:59 UTC.
Position N 59°23' E 018°20'.

Length 38 m; draft 2.5 m.

Type: Passenger vessel. MMSI: 265520390.

Date/timePositionNaut miles runAvg speedWind from/ knotsBaromVisibWave heightAir tempDewpointWater temp
2014-Jul-22 14:17N 59°23' E 018°20'811.1
2014-Jul-22 13:32N 59°20' E 018°05'3 3.2
2014-Jul-22 12:33N 59°19' E 018°11'4 1.0
2014-Jul-22 08:28N 59°22' E 018°17'5 1.6
2014-Jul-22 05:33N 59°19' E 018°09'1 0.1
2014-Jul-21 14:12N 59°19' E 018°07'1 1.3
2014-Jul-21 13:30N 59°19' E 018°05'1 0.1
2014-Jul-21 06:09N 59°19' E 018°06'1 0.6
2014-Jul-21 04:09N 59°20' E 018°04'0 0.0
2014-Jul-20 18:33N 59°20' E 018°04'1 0.2
2014-Jul-20 13:22N 59°19' E 018°06'1 0.1
2014-Jul-20 06:33N 59°19' E 018°05'0 0.3
2014-Jul-20 05:32N 59°20' E 018°04'0 0.0
2014-Jul-20 04:32N 59°20' E 018°04'0 0.0
2014-Jul-20 03:32N 59°20' E 018°04'0 0.0
2014-Jul-20 02:32N 59°20' E 018°04'0 0.0
2014-Jul-20 01:29N 59°20' E 018°04'0 0.0
2014-Jul-20 00:29N 59°20' E 018°04'0 0.0
2014-Jul-19 23:32N 59°20' E 018°04'0 0.0
2014-Jul-19 22:32N 59°20' E 018°04'0 0.0
2014-Jul-19 21:32N 59°20' E 018°04'0 0.0
2014-Jul-19 20:32N 59°20' E 018°04'0 0.0
2014-Jul-19 19:29N 59°20' E 018°04'0 0.0
2014-Jul-19 18:32N 59°20' E 018°04'0 0.0
2014-Jul-19 17:32N 59°20' E 018°04'0 0.0
2014-Jul-19 16:32N 59°20' E 018°04'0 0.0
2014-Jul-19 15:32N 59°20' E 018°04'0 0.0
2014-Jul-19 14:26N 59°20' E 018°04'0 0.0
2014-Jul-19 13:32N 59°20' E 018°04'0 0.0
2014-Jul-19 06:33N 59°20' E 018°05'0 0.1
2014-Jul-19 05:31N 59°20' E 018°04'0 0.0
2014-Jul-19 04:31N 59°20' E 018°04'0 0.0
2014-Jul-19 03:31N 59°20' E 018°04'0 0.0
2014-Jul-19 02:31N 59°20' E 018°04'0 0.0
2014-Jul-19 01:31N 59°20' E 018°04'0 0.0
2014-Jul-19 00:31N 59°20' E 018°04'0 0.0
2014-Jul-18 23:31N 59°20' E 018°04'0 0.0
2014-Jul-18 22:31N 59°20' E 018°04'0 0.0
2014-Jul-18 21:31N 59°20' E 018°04'0 0.0
2014-Jul-18 20:31N 59°20' E 018°04'0 0.0
2014-Jul-18 19:31N 59°20' E 018°04'0 0.0
2014-Jul-18 18:31N 59°20' E 018°04'0 0.0
2014-Jul-18 17:28N 59°20' E 018°04'0 0.0
2014-Jul-18 09:33N 59°20' E 018°05'1 0.0
2014-Jul-17 15:11N 59°19' E 018°06'1 1.2
2014-Jul-17 14:18N 59°20' E 018°05'0 0.0
2014-Jul-17 06:33N 59°19' E 018°05'0 0.4
2014-Jul-17 05:26N 59°20' E 018°05'0 0.0
2014-Jul-17 04:32N 59°20' E 018°05'0 0.0
2014-Jul-17 03:32N 59°20' E 018°05'0 0.0
2014-Jul-17 02:32N 59°20' E 018°05'0 0.0
2014-Jul-17 01:32N 59°20' E 018°05'0 0.0
2014-Jul-17 00:32N 59°20' E 018°05'0 0.0
2014-Jul-16 23:32N 59°20' E 018°05'0 0.0
2014-Jul-16 22:32N 59°20' E 018°05'0 0.0
2014-Jul-16 21:32N 59°20' E 018°05'0 0.0
2014-Jul-16 20:32N 59°20' E 018°05'0 0.0
2014-Jul-16 14:32N 59°20' E 018°05'0 0.0
2014-Jul-16 10:05N 59°20' E 018°04'0 0.0
2014-Jul-16 08:17N 59°20' E 018°04'0 0.0
2014-Jul-15 13:32N 59°20' E 018°05'0 0.0
2014-Jul-15 07:33N 59°20' E 018°05'0 0.0
2014-Jul-15 06:33N 59°20' E 018°05'3 0.2
2014-Jul-14 14:26N 59°20' E 018°11'3 3.5
2014-Jul-14 13:27N 59°20' E 018°05'3 0.5
2014-Jul-14 06:22N 59°20' E 018°11'3 3.7
2014-Jul-14 05:28N 59°20' E 018°04'0 0.0
2014-Jul-14 04:31N 59°20' E 018°04'0 0.0
2014-Jul-14 03:31N 59°20' E 018°04'0 0.0
2014-Jul-14 02:28N 59°20' E 018°04'0 0.0
2014-Jul-14 01:31N 59°20' E 018°04'0 0.0
2014-Jul-14 00:31N 59°20' E 018°04'0 0.0
2014-Jul-13 23:31N 59°20' E 018°04'0 0.0
2014-Jul-13 22:31N 59°20' E 018°04'0 0.0
2014-Jul-13 21:31N 59°20' E 018°04'0 0.0
2014-Jul-13 20:31N 59°20' E 018°04'0 0.0
2014-Jul-13 19:28N 59°20' E 018°04'0 0.0
2014-Jul-13 18:31N 59°20' E 018°04'3 0.6
2014-Jul-13 13:32N 59°19' E 018°10'0 0.3
2014-Jul-13 12:33N 59°19' E 018°09'2 0.4
2014-Jul-13 06:33N 59°20' E 018°05'0 0.2
2014-Jul-13 05:28N 59°20' E 018°04'0 0.0
2014-Jul-13 04:28N 59°20' E 018°04'0 0.0
2014-Jul-13 03:31N 59°20' E 018°04'0 0.0
2014-Jul-13 02:31N 59°20' E 018°04'0 0.0
2014-Jul-13 01:31N 59°20' E 018°04'0 0.0
2014-Jul-13 00:28N 59°20' E 018°04'0 0.0
2014-Jul-12 23:31N 59°20' E 018°04'0 0.0
2014-Jul-12 22:31N 59°20' E 018°04'0 0.0
2014-Jul-12 21:31N 59°20' E 018°04'0 0.0
2014-Jul-12 20:31N 59°20' E 018°04'0 0.0
2014-Jul-12 19:31N 59°20' E 018°04'0 0.0
2014-Jul-12 18:31N 59°20' E 018°04'0 0.0
2014-Jul-12 17:31N 59°20' E 018°04'0 0.0
2014-Jul-12 16:31N 59°20' E 018°04'0 0.0
2014-Jul-12 15:28N 59°20' E 018°04'0 0.0
2014-Jul-12 14:31N 59°20' E 018°04'  

Dump ship's entire track history